Time;durP1;ratioP1;P1;durP2;ratioP2;P2;SDS_P1;SDS_P2;PMS_P1;PMS_P2;Temp;Humidity;BMP_temperature;BMP_pressure;BME280_temperature;BME280_humidity;BME280_pressure;Samples;Min_cycle;Max_cycle;Signal;HPM_P1;HPM_P2
2023/05/03 00:00:39;;;;;;;13.40;7.83;;;7.50;99.90;;;;;;5043001;28;20171;-62
2023/05/03 00:03:05;;;;;;;12.30;8.10;;;7.50;99.90;;;;;;5043628;28;20207;-61
2023/05/03 00:05:32;;;;;;;12.87;7.23;;;7.50;99.90;;;;;;5045156;28;20487;-62
2023/05/03 00:07:57;;;;;;;13.43;7.70;;;7.50;99.90;;;;;;5042425;28;20875;-61
2023/05/03 00:10:23;;;;;;;11.27;6.50;;;7.40;99.90;;;;;;5048459;28;20955;-62
2023/05/03 00:12:49;;;;;;;10.90;6.93;;;7.40;99.90;;;;;;5041150;28;20200;-62
2023/05/03 00:15:16;;;;;;;14.90;6.40;;;7.40;99.90;;;;;;5043699;28;20973;-61
2023/05/03 00:17:41;;;;;;;13.33;6.90;;;7.40;99.90;;;;;;5040116;28;20468;-61
2023/05/03 00:20:08;;;;;;;14.80;7.83;;;7.30;99.90;;;;;;5029385;28;20949;-61
2023/05/03 00:22:35;;;;;;;10.60;6.63;;;7.30;99.90;;;;;;5042272;28;20710;-61
2023/05/03 00:25:01;;;;;;;12.23;7.93;;;7.20;99.90;;;;;;5044205;28;20887;-62
2023/05/03 00:27:27;;;;;;;13.00;7.30;;;7.20;99.90;;;;;;5044405;28;20465;-62
2023/05/03 00:29:53;;;;;;;11.30;7.13;;;7.10;99.90;;;;;;5044876;28;20828;-61
2023/05/03 00:32:21;;;;;;;14.27;7.10;;;7.10;99.90;;;;;;5028777;28;20465;-61
2023/05/03 00:34:53;;;;;;;11.37;7.20;;;7.10;99.90;;;;;;5039829;28;20186;-62
2023/05/03 00:37:19;;;;;;;13.63;7.73;;;7.00;99.90;;;;;;5041137;28;20437;-61
2023/05/03 00:39:45;;;;;;;11.77;7.10;;;7.00;99.90;;;;;;5040560;28;20461;-61
2023/05/03 00:42:11;;;;;;;11.87;7.10;;;7.00;99.90;;;;;;5044419;28;20481;-61
2023/05/03 00:44:36;;;;;;;10.20;6.37;;;7.00;99.90;;;;;;5037260;28;20221;-62
2023/05/03 00:47:03;;;;;;;13.90;8.20;;;6.90;99.90;;;;;;5047173;28;20171;-61
2023/05/03 00:49:29;;;;;;;12.50;7.07;;;6.90;99.90;;;;;;5028924;28;20931;-62
2023/05/03 00:51:56;;;;;;;11.20;7.33;;;6.90;99.90;;;;;;5040602;28;21604;-61
2023/05/03 00:54:22;;;;;;;13.87;8.33;;;6.90;99.90;;;;;;5042097;28;20429;-62
2023/05/03 00:56:48;;;;;;;11.53;6.60;;;6.90;99.90;;;;;;5041858;28;20487;-61
2023/05/03 00:59:13;;;;;;;11.50;7.50;;;6.80;99.90;;;;;;5047257;28;20429;-61
2023/05/03 01:01:39;;;;;;;11.57;7.23;;;6.80;99.90;;;;;;5039559;28;20203;-61
2023/05/03 01:04:06;;;;;;;12.97;6.70;;;6.80;99.90;;;;;;5044415;28;20711;-61
2023/05/03 01:06:37;;;;;;;11.47;7.00;;;6.80;99.90;;;;;;5041277;28;20258;-61
2023/05/03 01:09:21;;;;;;;14.60;7.20;;;6.80;99.90;;;;;;5036745;28;20461;-63
2023/05/03 01:12:07;;;;;;;10.30;6.93;;;6.80;99.90;;;;;;5042165;28;20457;-62
2023/05/03 01:14:48;;;;;;;11.33;7.10;;;6.80;99.90;;;;;;5026717;28;20452;-61
2023/05/03 01:17:14;;;;;;;12.67;7.10;;;6.70;99.90;;;;;;5045569;28;20487;-61
2023/05/03 01:19:55;;;;;;;11.00;6.90;;;6.70;99.90;;;;;;5042819;28;20902;-62
2023/05/03 01:22:42;;;;;;;12.20;7.30;;;6.70;99.90;;;;;;5045718;28;20217;-62
2023/05/03 01:25:10;;;;;;;16.27;8.50;;;6.70;99.90;;;;;;5039843;28;20464;-62
2023/05/03 01:27:37;;;;;;;10.37;6.93;;;6.70;99.90;;;;;;5041611;28;20467;-61
2023/05/03 01:30:11;;;;;;;11.57;8.00;;;6.60;99.90;;;;;;5028761;28;20513;-61
2023/05/03 01:32:52;;;;;;;13.10;7.73;;;6.60;99.90;;;;;;5042423;28;20471;-62
2023/05/03 01:35:39;;;;;;;10.77;6.80;;;6.60;99.90;;;;;;5044264;28;20516;-60
2023/05/03 01:38:06;;;;;;;10.90;6.80;;;6.50;99.90;;;;;;5043317;28;21143;-62
2023/05/03 01:40:39;;;;;;;12.00;7.00;;;6.50;99.90;;;;;;5038770;28;21652;-62
2023/05/03 01:43:06;;;;;;;9.30;6.23;;;6.40;99.90;;;;;;5037692;28;20466;-61
2023/05/03 01:45:32;;;;;;;9.37;6.60;;;6.30;99.90;;;;;;5039814;28;20434;-62
2023/05/03 01:47:58;;;;;;;10.97;7.03;;;6.30;99.90;;;;;;5041938;28;20504;-62
2023/05/03 01:50:23;;;;;;;11.40;6.67;;;6.20;99.90;;;;;;5041847;28;20190;-61
2023/05/03 01:52:51;;;;;;;12.73;7.50;;;6.20;99.90;;;;;;5030580;28;20445;-61
2023/05/03 01:55:17;;;;;;;11.50;7.47;;;6.20;99.90;;;;;;5038943;28;20167;-61
2023/05/03 01:57:43;;;;;;;10.43;6.50;;;6.20;99.90;;;;;;5028537;28;20776;-61
2023/05/03 02:00:09;;;;;;;14.90;6.60;;;6.20;99.90;;;;;;5040785;28;21062;-61
2023/05/03 02:02:34;;;;;;;12.17;7.10;;;6.20;99.90;;;;;;5045741;28;20286;-62
2023/05/03 02:05:00;;;;;;;9.27;6.83;;;6.20;99.90;;;;;;5019976;28;20509;-62
2023/05/03 02:07:26;;;;;;;11.73;7.67;;;6.20;99.90;;;;;;5026898;28;20187;-61
2023/05/03 02:09:51;;;;;;;16.10;7.53;;;6.10;99.90;;;;;;5022382;28;20213;-62
2023/05/03 02:12:17;;;;;;;18.07;7.77;;;6.10;99.90;;;;;;5042195;28;20244;-61
2023/05/03 02:14:42;;;;;;;13.23;7.00;;;6.10;99.90;;;;;;5037955;28;20602;-61
2023/05/03 02:17:09;;;;;;;11.50;6.27;;;6.10;99.90;;;;;;5034118;28;20190;-61
2023/05/03 02:19:35;;;;;;;11.50;6.67;;;6.10;99.90;;;;;;5045676;28;20187;-61
2023/05/03 02:22:00;;;;;;;11.57;7.70;;;6.00;99.90;;;;;;5044993;28;20457;-61
2023/05/03 02:24:26;;;;;;;13.70;7.87;;;6.00;99.90;;;;;;5044423;28;20253;-61
2023/05/03 02:26:52;;;;;;;12.00;6.80;;;6.00;99.90;;;;;;5036393;28;20438;-61
2023/05/03 02:29:17;;;;;;;11.57;6.30;;;6.00;99.90;;;;;;5041708;28;20217;-61
2023/05/03 02:31:43;;;;;;;10.80;6.83;;;6.00;99.90;;;;;;5028709;28;20211;-61
2023/05/03 02:34:08;;;;;;;11.63;6.07;;;5.90;99.90;;;;;;5039074;28;20180;-61
2023/05/03 02:36:34;;;;;;;13.83;7.03;;;5.90;99.90;;;;;;5040499;28;20759;-61
2023/05/03 02:39:00;;;;;;;12.37;7.27;;;5.90;99.90;;;;;;5040011;28;20187;-61
2023/05/03 02:41:26;;;;;;;10.93;6.47;;;5.90;99.90;;;;;;5020535;28;20204;-61
2023/05/03 02:43:51;;;;;;;11.93;6.83;;;5.80;99.90;;;;;;5024573;28;20209;-61
2023/05/03 02:46:17;;;;;;;13.70;6.47;;;5.80;99.90;;;;;;5038520;28;20834;-60
2023/05/03 02:48:42;;;;;;;10.73;7.13;;;5.80;99.90;;;;;;5041651;28;20183;-60
2023/05/03 02:51:08;;;;;;;9.57;6.03;;;5.70;99.90;;;;;;5038833;28;20175;-60
2023/05/03 02:53:33;;;;;;;11.10;6.97;;;5.70;99.90;;;;;;5039959;28;20265;-61
2023/05/03 02:55:59;;;;;;;12.30;6.60;;;5.70;99.90;;;;;;5024910;28;20183;-61
2023/05/03 02:58:25;;;;;;;8.93;5.90;;;5.70;99.90;;;;;;5040857;28;20214;-61
2023/05/03 03:00:51;;;;;;;9.83;6.73;;;5.70;99.90;;;;;;5039961;28;20666;-61
2023/05/03 03:03:16;;;;;;;12.83;6.63;;;5.60;99.90;;;;;;5035979;28;20706;-61
2023/05/03 03:05:42;;;;;;;15.63;6.10;;;5.60;99.90;;;;;;5043539;28;20441;-60
2023/05/03 03:08:08;;;;;;;12.30;6.20;;;5.60;99.90;;;;;;5040809;28;21277;-61
2023/05/03 03:10:33;;;;;;;14.60;7.37;;;5.60;99.90;;;;;;5042688;28;20250;-60
2023/05/03 03:12:59;;;;;;;11.50;7.17;;;5.60;99.90;;;;;;5040067;28;20230;-61
2023/05/03 03:15:24;;;;;;;11.53;6.60;;;5.60;99.90;;;;;;5039890;28;20184;-61
2023/05/03 03:17:50;;;;;;;14.40;6.90;;;5.50;99.90;;;;;;5046268;28;20175;-60
2023/05/03 03:20:16;;;;;;;8.50;6.00;;;5.50;99.90;;;;;;5042191;28;20221;-61
2023/05/03 03:22:42;;;;;;;10.73;6.63;;;5.50;99.90;;;;;;5036627;28;20317;-61
2023/05/03 03:25:09;;;;;;;9.37;6.10;;;5.50;99.90;;;;;;5039245;28;20201;-61
2023/05/03 03:27:34;;;;;;;12.23;6.60;;;5.50;99.90;;;;;;5039705;28;20426;-61
2023/05/03 03:30:00;;;;;;;12.40;6.57;;;5.40;99.90;;;;;;5039004;28;20471;-61
2023/05/03 03:32:26;;;;;;;9.50;6.50;;;5.40;99.90;;;;;;5037310;28;20740;-60
2023/05/03 03:34:51;;;;;;;16.03;6.70;;;5.30;99.90;;;;;;5045974;28;20179;-61
2023/05/03 03:37:17;;;;;;;14.23;6.27;;;5.30;99.90;;;;;;5040760;28;20199;-60
2023/05/03 03:39:43;;;;;;;12.03;7.53;;;5.30;99.90;;;;;;5043718;28;20186;-60
2023/05/03 03:42:11;;;;;;;16.10;7.53;;;5.30;99.90;;;;;;5034606;28;20656;-61
2023/05/03 03:44:37;;;;;;;12.10;6.80;;;5.20;99.90;;;;;;5046299;28;20332;-61
2023/05/03 03:47:02;;;;;;;18.70;7.50;;;5.20;99.90;;;;;;5041486;28;20896;-61
2023/05/03 03:49:28;;;;;;;12.80;7.20;;;5.20;99.90;;;;;;5041305;28;20178;-60
2023/05/03 03:51:53;;;;;;;12.27;6.97;;;5.20;99.90;;;;;;5040370;28;20195;-59
2023/05/03 03:54:19;;;;;;;12.83;7.10;;;5.20;99.90;;;;;;5037974;28;20171;-58
2023/05/03 03:56:44;;;;;;;10.20;7.17;;;5.20;99.90;;;;;;5039061;28;20686;-58
2023/05/03 03:59:10;;;;;;;11.00;7.10;;;5.20;99.90;;;;;;5033346;28;20202;-58
2023/05/03 04:01:36;;;;;;;13.87;7.13;;;5.20;99.90;;;;;;5043130;28;20199;-59
2023/05/03 04:04:01;;;;;;;11.73;7.30;;;5.20;99.90;;;;;;5030039;28;20664;-60
2023/05/03 04:06:27;;;;;;;13.63;8.00;;;5.20;99.90;;;;;;5031813;28;20163;-60
2023/05/03 04:08:53;;;;;;;18.33;7.13;;;5.20;99.90;;;;;;5037942;28;20249;-60
2023/05/03 04:11:20;;;;;;;10.57;6.60;;;5.20;99.90;;;;;;5040825;28;21249;-60
2023/05/03 04:13:46;;;;;;;14.33;8.07;;;5.20;99.90;;;;;;5039779;28;20187;-61
2023/05/03 04:16:11;;;;;;;17.43;8.87;;;5.20;99.90;;;;;;5031628;28;20517;-61
2023/05/03 04:18:37;;;;;;;12.13;7.17;;;5.20;99.90;;;;;;5029355;28;20180;-60
2023/05/03 04:21:02;;;;;;;12.67;7.13;;;5.20;99.90;;;;;;5033544;28;20191;-59
2023/05/03 04:23:28;;;;;;;14.53;6.53;;;5.20;99.90;;;;;;5028769;28;20763;-60
2023/05/03 04:25:55;;;;;;;13.33;7.90;;;5.20;99.90;;;;;;5038020;28;20175;-62
2023/05/03 04:28:21;;;;;;;14.53;7.47;;;5.20;99.90;;;;;;5023374;28;20679;-61
2023/05/03 04:30:48;;;;;;;14.40;7.77;;;5.20;99.90;;;;;;5029319;28;20418;-61
2023/05/03 04:33:14;;;;;;;17.03;7.47;;;5.20;99.90;;;;;;5030615;28;20885;-61
2023/05/03 04:35:40;;;;;;;11.93;7.90;;;5.20;99.90;;;;;;5028752;28;20437;-58
2023/05/03 04:38:07;;;;;;;11.03;6.83;;;5.20;99.90;;;;;;5021525;28;20438;-61
2023/05/03 04:40:33;;;;;;;13.80;7.50;;;5.30;99.90;;;;;;5034446;28;20438;-61
2023/05/03 04:42:59;;;;;;;11.87;7.20;;;5.30;99.90;;;;;;5019695;28;20476;-61
2023/05/03 04:45:26;;;;;;;12.00;7.63;;;5.30;99.90;;;;;;5032674;28;20183;-61
2023/05/03 04:47:51;;;;;;;14.23;7.70;;;5.30;99.90;;;;;;5039851;28;20668;-61
2023/05/03 04:50:17;;;;;;;16.40;7.80;;;5.30;99.90;;;;;;5035300;28;20437;-61
2023/05/03 04:52:44;;;;;;;15.77;8.10;;;5.30;99.90;;;;;;5035999;28;20195;-62
2023/05/03 04:55:10;;;;;;;13.17;7.70;;;5.40;99.90;;;;;;5039754;28;20171;-61
2023/05/03 04:57:35;;;;;;;12.33;7.30;;;5.40;99.90;;;;;;5044465;28;20432;-62
2023/05/03 05:00:01;;;;;;;14.13;7.37;;;5.40;99.90;;;;;;5039733;28;20221;-62
2023/05/03 05:02:27;;;;;;;14.33;7.10;;;5.50;99.90;;;;;;5039059;28;20187;-62
2023/05/03 05:04:53;;;;;;;12.87;7.53;;;5.50;99.90;;;;;;5046846;28;20219;-62
2023/05/03 05:07:18;;;;;;;10.50;7.03;;;5.50;99.90;;;;;;5044588;28;20434;-62
2023/05/03 05:09:44;;;;;;;14.70;7.90;;;5.60;99.90;;;;;;5046241;28;20189;-62
2023/05/03 05:12:10;;;;;;;12.80;7.67;;;5.60;99.90;;;;;;5045302;28;20210;-61
2023/05/03 05:14:35;;;;;;;14.20;7.83;;;5.70;99.90;;;;;;5046094;28;20187;-62
2023/05/03 05:17:01;;;;;;;15.17;7.63;;;5.80;99.90;;;;;;5045737;28;20461;-62
2023/05/03 05:19:27;;;;;;;17.43;7.67;;;5.80;99.90;;;;;;5048313;28;20187;-62
2023/05/03 05:21:52;;;;;;;11.80;7.27;;;5.90;99.90;;;;;;5023564;28;20202;-62
2023/05/03 05:24:18;;;;;;;22.73;13.17;;;6.00;99.90;;;;;;5039022;28;20224;-63
2023/05/03 05:26:44;;;;;;;17.13;9.00;;;6.10;99.90;;;;;;5043872;28;20179;-61
2023/05/03 05:29:09;;;;;;;14.27;9.13;;;6.20;99.90;;;;;;5045055;28;20159;-62
2023/05/03 05:31:35;;;;;;;14.20;7.90;;;6.30;99.90;;;;;;5041355;28;20196;-61
2023/05/03 05:34:01;;;;;;;14.20;8.30;;;6.30;99.90;;;;;;5039472;28;20239;-62
2023/05/03 05:36:27;;;;;;;15.33;8.87;;;6.40;99.90;;;;;;5034642;28;20179;-62
2023/05/03 05:38:52;;;;;;;15.80;9.00;;;6.50;99.90;;;;;;5043297;28;20175;-62
2023/05/03 05:41:18;;;;;;;11.43;8.13;;;6.50;99.90;;;;;;5038032;28;20207;-62
2023/05/03 05:43:44;;;;;;;23.50;8.97;;;6.60;99.90;;;;;;5035716;28;20331;-61
2023/05/03 05:46:10;;;;;;;15.73;8.83;;;6.70;99.90;;;;;;5034746;28;20176;-62
2023/05/03 05:48:35;;;;;;;17.80;8.43;;;6.70;99.90;;;;;;5041241;28;20437;-61
2023/05/03 05:51:01;;;;;;;16.30;8.23;;;6.70;99.90;;;;;;5039483;28;20183;-62
2023/05/03 05:53:27;;;;;;;17.60;8.50;;;6.70;99.90;;;;;;5040383;28;20231;-61
2023/05/03 05:55:53;;;;;;;14.07;8.53;;;6.70;99.90;;;;;;5040416;28;20187;-62
2023/05/03 05:58:18;;;;;;;16.20;9.03;;;6.80;99.90;;;;;;5038537;28;20445;-62
2023/05/03 06:00:44;;;;;;;14.30;8.13;;;6.80;99.90;;;;;;5040860;28;20183;-62
2023/05/03 06:03:10;;;;;;;18.40;8.50;;;6.80;99.90;;;;;;5042483;28;20218;-62
2023/05/03 06:05:35;;;;;;;14.77;8.90;;;6.80;99.90;;;;;;5041340;28;20183;-61
2023/05/03 06:08:01;;;;;;;20.57;9.40;;;6.90;99.90;;;;;;5041028;28;20222;-61
2023/05/03 06:10:27;;;;;;;20.10;9.40;;;6.90;99.90;;;;;;5021316;28;20175;-62
2023/05/03 06:12:52;;;;;;;17.50;9.00;;;7.00;99.90;;;;;;5037495;28;20576;-61
2023/05/03 06:15:18;;;;;;;17.33;10.40;;;7.00;99.90;;;;;;5044286;28;20757;-62
2023/05/03 06:17:44;;;;;;;21.43;10.37;;;7.10;99.90;;;;;;5043387;28;20176;-62
2023/05/03 06:20:13;;;;;;;18.77;9.27;;;7.20;99.90;;;;;;5040225;28;20678;-61
2023/05/03 06:22:38;;;;;;;17.90;8.83;;;7.30;99.90;;;;;;5021084;28;20479;-61
2023/05/03 06:25:06;;;;;;;21.10;9.83;;;7.40;99.90;;;;;;5042299;28;20556;-62
2023/05/03 06:27:32;;;;;;;23.13;10.63;;;7.50;99.90;;;;;;5039943;28;20203;-61
2023/05/03 06:29:58;;;;;;;21.77;11.37;;;7.60;99.90;;;;;;5037066;28;20437;-63
2023/05/03 06:32:23;;;;;;;26.10;11.03;;;7.80;99.90;;;;;;5039938;28;20298;-61
2023/05/03 06:34:49;;;;;;;25.63;12.07;;;8.00;99.90;;;;;;5021233;28;20273;-61
2023/05/03 06:37:15;;;;;;;21.70;12.60;;;8.20;99.90;;;;;;5022305;28;20179;-62
2023/05/03 06:39:41;;;;;;;18.80;10.97;;;8.40;99.90;;;;;;5040120;28;20456;-61
2023/05/03 06:42:07;;;;;;;21.07;11.30;;;8.60;99.90;;;;;;5041808;28;20458;-62
2023/05/03 06:44:32;;;;;;;24.70;11.80;;;8.70;99.90;;;;;;5038222;28;20211;-61
2023/05/03 06:46:58;;;;;;;19.83;12.10;;;8.90;99.90;;;;;;5044910;28;20962;-61
2023/05/03 06:49:24;;;;;;;18.83;11.57;;;9.00;99.90;;;;;;5038040;28;20175;-62
2023/05/03 06:51:49;;;;;;;21.33;13.70;;;9.20;99.90;;;;;;5036816;28;20203;-62
2023/05/03 06:54:15;;;;;;;17.30;12.40;;;9.40;99.90;;;;;;5039720;28;20179;-61
2023/05/03 06:56:41;;;;;;;16.83;11.37;;;9.60;99.90;;;;;;5018352;28;20778;-61
2023/05/03 06:59:09;;;;;;;20.27;13.07;;;9.70;99.90;;;;;;5041141;28;20760;-62
2023/05/03 07:01:35;;;;;;;23.30;12.53;;;10.00;99.90;;;;;;5041730;28;20695;-61
2023/05/03 07:04:00;;;;;;;20.00;11.30;;;10.20;99.90;;;;;;5040600;28;20476;-62
2023/05/03 07:06:26;;;;;;;19.90;11.90;;;10.40;99.90;;;;;;5037265;28;20175;-61
2023/05/03 07:08:53;;;;;;;24.60;12.77;;;10.50;99.90;;;;;;5037285;28;20176;-62
2023/05/03 07:11:22;;;;;;;16.70;11.30;;;10.60;99.90;;;;;;5041064;28;20183;-62
2023/05/03 07:13:52;;;;;;;18.20;11.70;;;10.80;99.90;;;;;;5039620;28;20433;-61
2023/05/03 07:16:19;;;;;;;19.30;11.57;;;10.90;99.90;;;;;;5039992;28;20456;-62
2023/05/03 07:18:46;;;;;;;17.37;12.10;;;10.90;99.90;;;;;;5034367;28;20441;-62
2023/05/03 07:21:12;;;;;;;19.23;11.80;;;11.00;99.90;;;;;;5039308;28;20426;-62
2023/05/03 07:23:38;;;;;;;15.60;11.20;;;11.10;99.90;;;;;;5042511;28;20495;-62
2023/05/03 07:26:04;;;;;;;23.00;13.00;;;11.20;98.60;;;;;;5037188;28;20962;-62
2023/05/03 07:28:30;;;;;;;17.70;11.67;;;11.30;97.50;;;;;;5040389;28;20465;-57
2023/05/03 07:30:56;;;;;;;16.10;10.87;;;11.40;96.40;;;;;;5033807;28;20456;-57
2023/05/03 07:33:21;;;;;;;17.57;11.47;;;11.40;95.70;;;;;;5020150;28;20294;-58
2023/05/03 07:35:47;;;;;;;16.23;11.27;;;11.40;96.00;;;;;;5045030;28;20570;-58
2023/05/03 07:38:13;;;;;;;15.50;11.40;;;11.50;96.20;;;;;;5038089;28;20187;-58
2023/05/03 07:40:40;;;;;;;19.23;11.33;;;11.60;96.10;;;;;;5038127;28;21015;-58
2023/05/03 07:43:07;;;;;;;19.40;12.20;;;11.70;94.40;;;;;;5033899;28;20203;-57
2023/05/03 07:45:33;;;;;;;20.10;12.97;;;11.70;93.20;;;;;;5017817;28;20872;-58
2023/05/03 07:47:58;;;;;;;15.90;11.73;;;11.70;93.50;;;;;;5033957;28;20529;-61
2023/05/03 07:50:24;;;;;;;17.27;10.90;;;11.80;92.80;;;;;;5036351;28;20262;-61
2023/05/03 07:52:50;;;;;;;18.33;11.67;;;11.80;91.90;;;;;;5025836;28;20199;-61
2023/05/03 07:55:17;;;;;;;14.83;10.20;;;11.80;92.80;;;;;;5022576;28;20182;-61
2023/05/03 07:57:43;;;;;;;15.53;10.67;;;11.90;93.40;;;;;;5037049;28;20966;-61
2023/05/03 08:00:12;;;;;;;20.87;12.33;;;12.00;92.30;;;;;;5040726;28;20464;-61
2023/05/03 08:02:38;;;;;;;14.97;10.23;;;12.10;91.40;;;;;;5022416;28;20261;-61
2023/05/03 08:05:05;;;;;;;15.93;10.33;;;12.20;92.30;;;;;;5043219;28;20983;-61
2023/05/03 08:07:31;;;;;;;15.47;11.00;;;12.40;92.00;;;;;;5033945;28;20439;-61
2023/05/03 08:10:00;;;;;;;13.57;10.03;;;12.50;90.80;;;;;;5037115;28;20869;-60
2023/05/03 08:12:26;;;;;;;17.00;10.40;;;12.60;88.50;;;;;;5042112;28;20454;-61
2023/05/03 08:14:53;;;;;;;12.83;9.80;;;12.70;86.30;;;;;;5027755;28;20444;-61
2023/05/03 08:17:19;;;;;;;16.07;9.70;;;12.80;83.40;;;;;;5038986;28;20897;-61
2023/05/03 08:19:46;;;;;;;14.53;10.33;;;12.80;82.30;;;;;;5044483;28;20566;-61
2023/05/03 08:22:11;;;;;;;14.20;10.37;;;12.90;80.20;;;;;;5025278;28;20449;-61
2023/05/03 08:24:41;;;;;;;12.10;9.83;;;12.80;78.80;;;;;;5046635;28;20902;-61
2023/05/03 08:27:08;;;;;;;16.23;11.77;;;12.70;78.80;;;;;;5038804;28;20619;-61
2023/05/03 08:29:36;;;;;;;14.53;9.00;;;12.60;79.40;;;;;;5045724;28;20441;-61
2023/05/03 08:32:03;;;;;;;11.20;8.50;;;12.70;80.90;;;;;;5044606;28;21031;-61
2023/05/03 08:34:29;;;;;;;13.73;10.17;;;12.70;79.80;;;;;;5046199;28;20524;-61
2023/05/03 08:36:55;;;;;;;14.80;10.43;;;12.70;79.70;;;;;;5042778;28;20447;-61
2023/05/03 08:39:26;;;;;;;14.87;10.13;;;12.80;80.10;;;;;;5042760;28;20433;-62
2023/05/03 08:41:54;;;;;;;12.23;9.80;;;12.90;77.20;;;;;;5042083;28;20475;-61
2023/05/03 08:44:22;;;;;;;12.57;8.70;;;12.90;74.70;;;;;;5023440;28;20481;-62
2023/05/03 08:46:48;;;;;;;11.23;8.57;;;12.90;73.70;;;;;;5043037;28;20440;-61
2023/05/03 08:49:16;;;;;;;12.40;8.90;;;13.10;74.30;;;;;;5042311;28;20512;-61
2023/05/03 08:51:43;;;;;;;14.03;9.13;;;13.20;73.10;;;;;;5043853;28;21277;-61
2023/05/03 08:54:08;;;;;;;12.83;8.83;;;13.40;73.00;;;;;;5047191;28;20441;-61
2023/05/03 08:56:42;;;;;;;10.00;8.13;;;13.60;71.50;;;;;;5039456;28;21090;-62
2023/05/03 08:59:11;;;;;;;11.47;8.90;;;13.80;70.90;;;;;;5044812;28;20724;-62
2023/05/03 09:01:40;;;;;;;10.27;7.70;;;14.00;70.70;;;;;;5020261;28;20457;-62
2023/05/03 09:04:08;;;;;;;15.00;8.77;;;14.30;69.80;;;;;;5031242;28;20457;-62
2023/05/03 09:06:43;;;;;;;12.90;9.43;;;14.50;68.90;;;;;;5022260;28;20441;-61
2023/05/03 09:09:09;;;;;;;11.33;8.30;;;14.60;66.20;;;;;;5032679;28;20425;-61
2023/05/03 09:11:37;;;;;;;12.90;8.67;;;14.80;66.30;;;;;;5034587;28;20468;-61
2023/05/03 09:14:17;;;;;;;17.90;8.57;;;14.80;64.80;;;;;;5043862;28;20516;-62
2023/05/03 09:16:44;;;;;;;10.60;7.87;;;14.90;64.80;;;;;;5040096;28;20441;-62
2023/05/03 09:19:11;;;;;;;10.73;8.23;;;15.10;64.50;;;;;;5040562;28;20499;-61
2023/05/03 09:21:41;;;;;;;14.40;8.63;;;15.30;64.00;;;;;;5038351;28;20468;-61
2023/05/03 09:24:21;;;;;;;10.90;7.33;;;15.40;62.50;;;;;;5038743;28;20557;-62
2023/05/03 09:26:49;;;;;;;11.27;8.23;;;15.50;62.30;;;;;;5040305;28;20469;-61
2023/05/03 09:29:34;;;;;;;16.00;7.60;;;15.60;62.40;;;;;;5037739;28;20545;-61
2023/05/03 09:32:04;;;;;;;10.57;7.93;;;15.70;62.30;;;;;;5043191;28;20453;-61
2023/05/03 09:34:31;;;;;;;9.60;7.53;;;15.90;62.50;;;;;;5039929;28;20438;-61
2023/05/03 09:36:57;;;;;;;8.57;7.00;;;16.00;62.50;;;;;;5043500;28;20491;-62
2023/05/03 09:39:22;;;;;;;9.23;7.03;;;16.10;61.90;;;;;;5041271;28;20437;-61
2023/05/03 09:41:48;;;;;;;10.37;7.80;;;16.20;61.20;;;;;;5041994;28;20210;-61
2023/05/03 09:44:16;;;;;;;11.93;7.73;;;16.40;60.60;;;;;;5046539;28;20285;-61
2023/05/03 09:47:04;;;;;;;11.07;7.67;;;16.50;59.70;;;;;;5040462;28;20175;-61
2023/05/03 09:49:33;;;;;;;11.20;8.40;;;16.60;58.50;;;;;;5045051;28;20430;-61
2023/05/03 09:52:00;;;;;;;7.73;6.50;;;16.60;58.40;;;;;;5044147;28;20463;-61
2023/05/03 09:54:27;;;;;;;13.30;7.90;;;16.60;58.30;;;;;;5034657;28;20942;-61
2023/05/03 09:56:54;;;;;;;8.97;7.20;;;16.70;57.50;;;;;;5036859;28;20869;-62
2023/05/03 09:59:20;;;;;;;6.93;6.20;;;16.70;56.80;;;;;;5040029;28;20506;-60
2023/05/03 10:01:46;;;;;;;9.33;7.23;;;16.80;56.10;;;;;;5036240;28;20960;-62
2023/05/03 10:04:15;;;;;;;12.20;7.90;;;16.90;56.50;;;;;;5042646;28;20582;-62
2023/05/03 10:06:41;;;;;;;10.03;7.47;;;16.90;56.40;;;;;;5044331;28;20952;-62
2023/05/03 10:09:28;;;;;;;9.90;7.50;;;17.00;55.90;;;;;;5040295;28;20434;-61
2023/05/03 10:11:59;;;;;;;8.93;7.00;;;17.00;55.50;;;;;;5019968;28;20195;-62
2023/05/03 10:14:25;;;;;;;11.63;6.83;;;17.00;54.70;;;;;;5042556;28;20434;-62
2023/05/03 10:16:57;;;;;;;9.07;6.87;;;17.00;54.90;;;;;;5043115;28;20453;-62
2023/05/03 10:19:31;;;;;;;7.67;6.90;;;17.10;55.10;;;;;;5045690;28;20524;-61
2023/05/03 10:22:03;;;;;;;8.53;5.53;;;17.20;54.60;;;;;;5038773;28;20473;-62
2023/05/03 10:24:29;;;;;;;8.00;6.90;;;17.30;55.60;;;;;;5024516;28;21524;-62
2023/05/03 10:26:56;;;;;;;6.87;6.17;;;17.40;55.60;;;;;;5026605;28;20437;-62
2023/05/03 10:29:44;;;;;;;7.37;6.17;;;17.40;54.70;;;;;;5036669;28;20176;-62
2023/05/03 10:32:31;;;;;;;7.97;6.33;;;17.50;53.20;;;;;;5034648;28;20538;-61
2023/05/03 10:35:08;;;;;;;8.93;6.07;;;17.50;52.20;;;;;;5044943;28;20437;-61
2023/05/03 10:37:34;;;;;;;13.03;6.00;;;17.50;52.20;;;;;;5038329;28;21060;-62
2023/05/03 10:40:14;;;;;;;6.60;5.20;;;17.60;51.30;;;;;;5035991;28;21000;-62
2023/05/03 10:43:03;;;;;;;6.80;5.20;;;17.50;50.10;;;;;;5033439;28;20519;-61
2023/05/03 10:45:28;;;;;;;8.33;5.87;;;17.50;50.20;;;;;;5038326;28;20515;-60
2023/05/03 10:48:09;;;;;;;8.93;6.27;;;17.50;50.00;;;;;;5033833;28;20910;-58
2023/05/03 10:50:35;;;;;;;8.83;6.30;;;17.60;51.10;;;;;;5045582;28;20182;-59
2023/05/03 10:53:01;;;;;;;7.30;5.70;;;17.60;51.20;;;;;;5042859;28;20457;-58
2023/05/03 10:55:26;;;;;;;8.50;5.97;;;17.60;50.50;;;;;;5042207;28;20183;-61
2023/05/03 10:57:56;;;;;;;12.63;6.37;;;17.80;52.00;;;;;;5042242;28;20179;-61
2023/05/03 11:00:40;;;;;;;11.20;6.10;;;17.90;52.70;;;;;;5024443;28;20190;-61
2023/05/03 11:03:17;;;;;;;6.67;5.90;;;18.10;51.80;;;;;;5036167;28;20456;-61
2023/05/03 11:05:43;;;;;;;10.00;5.10;;;18.20;50.50;;;;;;5041224;28;20516;-61
2023/05/03 11:08:12;;;;;;;7.93;6.23;;;18.20;49.20;;;;;;5038623;28;20445;-61
2023/05/03 11:10:39;;;;;;;7.03;5.20;;;18.30;48.60;;;;;;5034926;28;20526;-61
2023/05/03 11:13:05;;;;;;;7.60;4.80;;;18.30;47.80;;;;;;5035835;28;20457;-61
2023/05/03 11:15:31;;;;;;;7.73;5.60;;;18.40;48.50;;;;;;5027552;28;20487;-61
2023/05/03 11:17:57;;;;;;;7.43;4.90;;;18.50;49.60;;;;;;5035395;28;20437;-61
2023/05/03 11:20:23;;;;;;;5.17;4.20;;;18.60;49.10;;;;;;5041885;28;20432;-62
2023/05/03 11:22:49;;;;;;;5.60;5.00;;;18.60;48.50;;;;;;5042310;28;20450;-61
2023/05/03 11:25:15;;;;;;;5.60;4.43;;;18.70;48.30;;;;;;5041485;28;20207;-61
2023/05/03 11:27:41;;;;;;;7.60;4.87;;;18.80;46.00;;;;;;5043905;28;20639;-61
2023/05/03 11:30:09;;;;;;;5.40;4.67;;;18.80;45.90;;;;;;5023033;28;20183;-62
2023/05/03 11:32:35;;;;;;;6.57;5.10;;;18.80;45.80;;;;;;5041782;28;20477;-61
2023/05/03 11:35:05;;;;;;;6.40;4.80;;;18.90;45.90;;;;;;5044938;28;20528;-61
2023/05/03 11:37:31;;;;;;;7.23;5.20;;;19.00;46.40;;;;;;5042812;28;20437;-61
2023/05/03 11:39:57;;;;;;;6.60;4.80;;;19.10;46.80;;;;;;5042323;28;20437;-61
2023/05/03 11:42:27;;;;;;;6.80;5.90;;;19.20;46.20;;;;;;5035740;28;20460;-61
2023/05/03 11:44:53;;;;;;;6.27;5.33;;;19.20;45.80;;;;;;5042431;28;20469;-60
2023/05/03 11:47:18;;;;;;;10.90;4.73;;;19.30;47.00;;;;;;5043909;28;20429;-61
2023/05/03 11:49:55;;;;;;;6.17;5.23;;;19.50;48.50;;;;;;5040219;28;20474;-60
2023/05/03 11:52:26;;;;;;;8.80;4.67;;;19.60;48.20;;;;;;5046955;28;20190;-61
2023/05/03 11:54:51;;;;;;;5.33;4.10;;;19.60;46.90;;;;;;5046461;28;20887;-61
2023/05/03 11:57:18;;;;;;;4.80;4.30;;;19.70;45.50;;;;;;5049633;28;20985;-61
2023/05/03 11:59:44;;;;;;;7.70;4.50;;;19.90;45.50;;;;;;5026420;28;20237;-61
2023/05/03 12:02:14;;;;;;;5.00;3.50;;;20.00;45.30;;;;;;5040183;28;21229;-61
2023/05/03 12:04:41;;;;;;;4.60;3.67;;;20.10;45.80;;;;;;5042871;28;20473;-61
2023/05/03 12:07:08;;;;;;;7.03;3.60;;;20.30;45.90;;;;;;5043320;28;20438;-60
2023/05/03 12:09:34;;;;;;;6.20;3.10;;;20.40;44.90;;;;;;5021797;28;20437;-61
2023/05/03 12:12:04;;;;;;;4.47;3.63;;;20.50;44.20;;;;;;5045557;28;20528;-61
2023/05/03 12:14:57;;;;;;;3.40;3.10;;;20.60;42.80;;;;;;5043485;28;20445;-61
2023/05/03 12:17:37;;;;;;;7.47;4.33;;;20.70;42.40;;;;;;5036003;28;20437;-62
2023/05/03 12:20:19;;;;;;;5.70;4.10;;;20.70;42.40;;;;;;5041317;28;21100;-61
2023/05/03 12:22:53;;;;;;;5.43;3.70;;;20.70;39.90;;;;;;5045009;28;20838;-62
2023/05/03 12:25:18;;;;;;;6.77;4.20;;;20.70;40.10;;;;;;5041323;28;20473;-61
2023/05/03 12:27:44;;;;;;;6.63;4.20;;;20.70;41.60;;;;;;5038039;28;20438;-61
2023/05/03 12:30:10;;;;;;;6.23;3.37;;;20.70;41.80;;;;;;5016924;28;20230;-61
2023/05/03 12:32:40;;;;;;;4.77;3.50;;;20.80;41.40;;;;;;5039731;28;20207;-61
2023/05/03 12:35:08;;;;;;;5.03;4.50;;;20.80;40.00;;;;;;5044061;28;20441;-61
2023/05/03 12:37:35;;;;;;;6.30;4.20;;;20.80;40.70;;;;;;5040174;28;20448;-60
2023/05/03 12:40:01;;;;;;;4.07;3.60;;;20.90;42.10;;;;;;5036599;28;21406;-61
2023/05/03 12:42:27;;;;;;;3.60;3.13;;;20.80;41.00;;;;;;5046536;28;20905;-61
2023/05/03 12:44:56;;;;;;;5.30;4.17;;;20.70;40.20;;;;;;5046583;28;20488;-61